sensor_id;sensor_type;location;lat;lon;timestamp;P1;P2;P0
27143;PMS1003;14672;50.250;8.312;2022-09-09T00:01:58;5.25;5.25;1.00
27143;PMS1003;14672;50.250;8.312;2022-09-09T00:04:38;6.00;6.00;1.75
27143;PMS1003;14672;50.250;8.312;2022-09-09T00:16:00;9.00;6.50;2.00
27143;PMS1003;14672;50.250;8.312;2022-09-09T00:18:44;6.00;6.00;2.50
27143;PMS1003;14672;50.250;8.312;2022-09-09T00:21:18;5.50;5.00;1.00
27143;PMS1003;14672;50.250;8.312;2022-09-09T00:23:53;6.25;6.25;3.50
27143;PMS1003;14672;50.250;8.312;2022-09-09T00:32:15;6.75;6.75;2.00
27143;PMS1003;14672;50.250;8.312;2022-09-09T00:37:41;8.00;8.00;2.00
27143;PMS1003;14672;50.250;8.312;2022-09-09T00:40:17;6.00;6.00;2.00
27143;PMS1003;14672;50.250;8.312;2022-09-09T00:43:12;6.75;6.00;2.00
27143;PMS1003;14672;50.250;8.312;2022-09-09T00:57:40;8.00;6.50;2.00
27143;PMS1003;14672;50.250;8.312;2022-09-09T01:00:17;8.00;8.00;2.50
27143;PMS1003;14672;50.250;8.312;2022-09-09T01:09:14;9.50;8.00;3.50
27143;PMS1003;14672;50.250;8.312;2022-09-09T01:11:55;8.00;6.75;1.25
27143;PMS1003;14672;50.250;8.312;2022-09-09T01:23:09;5.75;5.75;2.00
27143;PMS1003;14672;50.250;8.312;2022-09-09T01:29:06;8.75;8.75;4.00
27143;PMS1003;14672;50.250;8.312;2022-09-09T01:31:38;7.25;7.25;2.00
27143;PMS1003;14672;50.250;8.312;2022-09-09T01:34:14;8.00;8.00;4.00
27143;PMS1003;14672;50.250;8.312;2022-09-09T01:39:24;7.00;7.00;2.00
27143;PMS1003;14672;50.250;8.312;2022-09-09T01:41:52;7.25;6.50;2.00
27143;PMS1003;14672;50.250;8.312;2022-09-09T01:44:20;7.75;7.75;1.75
27143;PMS1003;14672;50.250;8.312;2022-09-09T01:46:47;7.25;7.25;1.50
27143;PMS1003;14672;50.250;8.312;2022-09-09T01:49:13;7.33;7.33;2.00
27143;PMS1003;14672;50.250;8.312;2022-09-09T01:51:39;8.33;8.33;2.00
27143;PMS1003;14672;50.250;8.312;2022-09-09T01:54:07;8.00;8.00;2.50
27143;PMS1003;14672;50.250;8.312;2022-09-09T02:04:51;7.50;7.50;3.25
27143;PMS1003;14672;50.250;8.312;2022-09-09T02:10:11;9.75;8.50;4.00
27143;PMS1003;14672;50.250;8.312;2022-09-09T02:13:01;7.00;7.00;2.00
27143;PMS1003;14672;50.250;8.312;2022-09-09T02:15:42;7.25;7.25;2.00
27143;PMS1003;14672;50.250;8.312;2022-09-09T02:18:41;7.25;7.00;1.75
27143;PMS1003;14672;50.250;8.312;2022-09-09T02:21:15;7.25;7.25;1.75
27143;PMS1003;14672;50.250;8.312;2022-09-09T02:23:44;13.00;12.25;5.00
27143;PMS1003;14672;50.250;8.312;2022-09-09T02:26:17;8.00;8.00;2.50
27143;PMS1003;14672;50.250;8.312;2022-09-09T02:28:50;8.25;7.00;2.00
27143;PMS1003;14672;50.250;8.312;2022-09-09T02:31:19;7.25;7.25;2.00
27143;PMS1003;14672;50.250;8.312;2022-09-09T02:33:51;8.00;7.00;2.00
27143;PMS1003;14672;50.250;8.312;2022-09-09T02:36:25;7.75;6.75;2.00
27143;PMS1003;14672;50.250;8.312;2022-09-09T02:38:54;8.25;8.25;2.00
27143;PMS1003;14672;50.250;8.312;2022-09-09T02:41:24;10.75;9.00;4.00
27143;PMS1003;14672;50.250;8.312;2022-09-09T02:43:57;9.25;9.25;4.75
27143;PMS1003;14672;50.250;8.312;2022-09-09T02:49:24;9.00;7.75;2.00
27143;PMS1003;14672;50.250;8.312;2022-09-09T02:52:18;8.50;7.00;2.00
27143;PMS1003;14672;50.250;8.312;2022-09-09T02:55:00;7.50;7.50;3.00
27143;PMS1003;14672;50.250;8.312;2022-09-09T02:57:37;8.00;7.75;4.00
27143;PMS1003;14672;50.250;8.312;2022-09-09T03:00:05;8.00;8.00;2.00
27143;PMS1003;14672;50.250;8.312;2022-09-09T03:02:32;6.75;6.75;2.00
27143;PMS1003;14672;50.250;8.312;2022-09-09T03:04:58;7.50;6.75;2.00
27143;PMS1003;14672;50.250;8.312;2022-09-09T03:07:24;8.67;8.67;2.67
27143;PMS1003;14672;50.250;8.312;2022-09-09T03:09:49;7.00;7.00;2.67
27143;PMS1003;14672;50.250;8.312;2022-09-09T03:12:15;7.00;7.00;2.00
27143;PMS1003;14672;50.250;8.312;2022-09-09T03:14:41;8.00;8.00;4.00
27143;PMS1003;14672;50.250;8.312;2022-09-09T03:17:08;8.00;8.00;3.50
27143;PMS1003;14672;50.250;8.312;2022-09-09T03:19:34;8.00;7.25;2.00
27143;PMS1003;14672;50.250;8.312;2022-09-09T03:22:01;8.00;8.00;2.00
27143;PMS1003;14672;50.250;8.312;2022-09-09T03:24:29;8.00;8.00;3.50
27143;PMS1003;14672;50.250;8.312;2022-09-09T03:26:54;9.00;8.00;2.00
27143;PMS1003;14672;50.250;8.312;2022-09-09T03:29:20;7.00;7.00;2.00
27143;PMS1003;14672;50.250;8.312;2022-09-09T03:31:46;8.00;8.00;4.00
27143;PMS1003;14672;50.250;8.312;2022-09-09T03:34:12;7.00;7.00;2.00
27143;PMS1003;14672;50.250;8.312;2022-09-09T03:36:41;7.25;7.25;2.00
27143;PMS1003;14672;50.250;8.312;2022-09-09T03:39:07;10.67;8.00;4.00
27143;PMS1003;14672;50.250;8.312;2022-09-09T03:41:32;11.00;9.00;4.00
27143;PMS1003;14672;50.250;8.312;2022-09-09T03:43:59;8.00;8.00;3.00
27143;PMS1003;14672;50.250;8.312;2022-09-09T03:46:25;9.67;9.67;4.00
27143;PMS1003;14672;50.250;8.312;2022-09-09T03:48:51;8.00;6.75;2.00
27143;PMS1003;14672;50.250;8.312;2022-09-09T03:51:17;8.00;8.00;2.00
27143;PMS1003;14672;50.250;8.312;2022-09-09T03:53:44;8.50;8.00;2.00
27143;PMS1003;14672;50.250;8.312;2022-09-09T03:56:10;6.00;6.00;2.00
27143;PMS1003;14672;50.250;8.312;2022-09-09T03:58:36;7.00;7.00;2.00
27143;PMS1003;14672;50.250;8.312;2022-09-09T04:01:04;7.25;6.75;2.00
27143;PMS1003;14672;50.250;8.312;2022-09-09T04:03:33;8.00;8.00;4.00
27143;PMS1003;14672;50.250;8.312;2022-09-09T04:06:00;6.75;6.75;2.00
27143;PMS1003;14672;50.250;8.312;2022-09-09T04:08:32;7.50;7.50;2.00
27143;PMS1003;14672;50.250;8.312;2022-09-09T04:10:57;5.67;5.67;2.00
27143;PMS1003;14672;50.250;8.312;2022-09-09T04:13:26;6.50;6.50;1.75
27143;PMS1003;14672;50.250;8.312;2022-09-09T04:15:59;8.50;7.50;1.75
27143;PMS1003;14672;50.250;8.312;2022-09-09T04:18:27;8.00;8.00;2.00
27143;PMS1003;14672;50.250;8.312;2022-09-09T04:20:55;5.25;5.25;2.00
27143;PMS1003;14672;50.250;8.312;2022-09-09T04:23:22;7.50;7.50;2.00
27143;PMS1003;14672;50.250;8.312;2022-09-09T04:25:50;4.25;4.25;1.00
27143;PMS1003;14672;50.250;8.312;2022-09-09T04:28:19;7.25;7.25;2.50
27143;PMS1003;14672;50.250;8.312;2022-09-09T04:30:48;6.75;6.75;2.00
27143;PMS1003;14672;50.250;8.312;2022-09-09T04:33:14;8.25;8.25;2.50
27143;PMS1003;14672;50.250;8.312;2022-09-09T04:35:45;8.00;8.00;3.50
27143;PMS1003;14672;50.250;8.312;2022-09-09T04:38:15;8.00;7.50;2.00
27143;PMS1003;14672;50.250;8.312;2022-09-09T04:40:42;6.75;6.75;1.75
27143;PMS1003;14672;50.250;8.312;2022-09-09T04:43:11;8.50;8.50;3.50
27143;PMS1003;14672;50.250;8.312;2022-09-09T04:45:39;8.00;8.00;2.00
27143;PMS1003;14672;50.250;8.312;2022-09-09T04:48:06;7.50;5.75;1.00
27143;PMS1003;14672;50.250;8.312;2022-09-09T04:50:33;8.00;8.00;2.00
27143;PMS1003;14672;50.250;8.312;2022-09-09T04:53:02;9.25;9.25;4.00
27143;PMS1003;14672;50.250;8.312;2022-09-09T04:55:30;6.25;6.25;1.50
27143;PMS1003;14672;50.250;8.312;2022-09-09T04:57:56;6.50;6.00;2.00
27143;PMS1003;14672;50.250;8.312;2022-09-09T05:00:23;6.00;6.00;2.00
27143;PMS1003;14672;50.250;8.312;2022-09-09T05:02:49;9.00;7.25;2.00
27143;PMS1003;14672;50.250;8.312;2022-09-09T05:05:16;6.75;6.75;2.50
27143;PMS1003;14672;50.250;8.312;2022-09-09T05:07:42;8.00;7.33;1.67
27143;PMS1003;14672;50.250;8.312;2022-09-09T05:10:08;6.75;6.50;3.00
27143;PMS1003;14672;50.250;8.312;2022-09-09T05:12:35;7.00;7.00;2.00
27143;PMS1003;14672;50.250;8.312;2022-09-09T05:15:01;8.00;8.00;3.33
27143;PMS1003;14672;50.250;8.312;2022-09-09T05:17:27;9.00;9.00;4.00
27143;PMS1003;14672;50.250;8.312;2022-09-09T05:19:53;8.75;8.50;3.50
27143;PMS1003;14672;50.250;8.312;2022-09-09T05:22:19;5.33;5.33;1.00
27143;PMS1003;14672;50.250;8.312;2022-09-09T05:24:46;6.25;6.25;2.00
27143;PMS1003;14672;50.250;8.312;2022-09-09T05:27:12;6.00;6.00;2.00
27143;PMS1003;14672;50.250;8.312;2022-09-09T05:29:38;6.00;6.00;2.00
27143;PMS1003;14672;50.250;8.312;2022-09-09T05:32:06;8.50;8.50;4.75
27143;PMS1003;14672;50.250;8.312;2022-09-09T05:34:32;8.33;8.00;2.00
27143;PMS1003;14672;50.250;8.312;2022-09-09T05:36:57;8.33;8.33;4.00
27143;PMS1003;14672;50.250;8.312;2022-09-09T05:39:23;7.33;7.00;2.00
27143;PMS1003;14672;50.250;8.312;2022-09-09T05:41:49;10.33;10.33;4.00
27143;PMS1003;14672;50.250;8.312;2022-09-09T05:44:16;8.00;8.00;2.00
27143;PMS1003;14672;50.250;8.312;2022-09-09T05:46:42;9.00;9.00;4.00
27143;PMS1003;14672;50.250;8.312;2022-09-09T05:49:08;12.00;9.33;4.67
27143;PMS1003;14672;50.250;8.312;2022-09-09T05:51:33;12.00;11.00;5.00
27143;PMS1003;14672;50.250;8.312;2022-09-09T05:53:59;9.00;9.00;4.00
27143;PMS1003;14672;50.250;8.312;2022-09-09T05:56:26;9.00;9.00;4.00
27143;PMS1003;14672;50.250;8.312;2022-09-09T05:58:54;9.00;9.00;4.25
27143;PMS1003;14672;50.250;8.312;2022-09-09T06:03:50;10.50;10.50;4.00
27143;PMS1003;14672;50.250;8.312;2022-09-09T06:06:18;8.00;8.00;4.25
27143;PMS1003;14672;50.250;8.312;2022-09-09T06:08:47;10.00;9.00;4.50
27143;PMS1003;14672;50.250;8.312;2022-09-09T06:11:17;10.00;10.00;5.00
27143;PMS1003;14672;50.250;8.312;2022-09-09T06:13:57;11.75;10.75;5.00
27143;PMS1003;14672;50.250;8.312;2022-09-09T06:16:23;9.25;9.25;4.00
27143;PMS1003;14672;50.250;8.312;2022-09-09T06:18:52;10.75;9.75;4.50
27143;PMS1003;14672;50.250;8.312;2022-09-09T06:21:20;9.00;9.00;4.00
27143;PMS1003;14672;50.250;8.312;2022-09-09T06:23:52;10.25;9.25;4.75
27143;PMS1003;14672;50.250;8.312;2022-09-09T06:26:19;10.33;9.67;4.33
27143;PMS1003;14672;50.250;8.312;2022-09-09T06:28:49;9.00;9.00;5.00
27143;PMS1003;14672;50.250;8.312;2022-09-09T06:31:18;11.50;10.00;5.00
27143;PMS1003;14672;50.250;8.312;2022-09-09T06:33:47;11.00;9.00;5.00
27143;PMS1003;14672;50.250;8.312;2022-09-09T06:36:19;9.50;9.50;5.00
27143;PMS1003;14672;50.250;8.312;2022-09-09T06:38:47;12.75;11.50;5.00
27143;PMS1003;14672;50.250;8.312;2022-09-09T06:41:14;11.00;9.33;5.00
27143;PMS1003;14672;50.250;8.312;2022-09-09T06:43:44;12.00;10.75;5.00
27143;PMS1003;14672;50.250;8.312;2022-09-09T06:48:41;9.00;9.00;5.00
27143;PMS1003;14672;50.250;8.312;2022-09-09T06:51:13;9.00;9.00;4.00
27143;PMS1003;14672;50.250;8.312;2022-09-09T06:53:49;11.50;11.00;5.00
27143;PMS1003;14672;50.250;8.312;2022-09-09T06:56:27;9.00;9.00;4.00
27143;PMS1003;14672;50.250;8.312;2022-09-09T06:58:54;12.25;12.00;4.25
27143;PMS1003;14672;50.250;8.312;2022-09-09T07:01:27;10.75;9.50;4.75
27143;PMS1003;14672;50.250;8.312;2022-09-09T07:03:58;10.50;9.00;4.75
27143;PMS1003;14672;50.250;8.312;2022-09-09T07:06:29;9.00;9.00;5.00
27143;PMS1003;14672;50.250;8.312;2022-09-09T07:09:14;8.75;8.75;4.00
27143;PMS1003;14672;50.250;8.312;2022-09-09T07:11:42;9.25;9.25;5.00
27143;PMS1003;14672;50.250;8.312;2022-09-09T07:14:10;12.00;10.75;5.25
27143;PMS1003;14672;50.250;8.312;2022-09-09T07:16:39;10.75;10.75;5.00
27143;PMS1003;14672;50.250;8.312;2022-09-09T07:19:06;12.00;11.50;5.00
27143;PMS1003;14672;50.250;8.312;2022-09-09T07:21:33;11.50;11.50;6.00
27143;PMS1003;14672;50.250;8.312;2022-09-09T07:23:59;11.25;11.25;5.50
27143;PMS1003;14672;50.250;8.312;2022-09-09T07:26:27;11.75;11.75;5.50
27143;PMS1003;14672;50.250;8.312;2022-09-09T07:28:55;12.50;12.50;5.00
27143;PMS1003;14672;50.250;8.312;2022-09-09T07:31:29;12.25;11.50;5.50
27143;PMS1003;14672;50.250;8.312;2022-09-09T07:33:58;12.50;12.25;6.00
27143;PMS1003;14672;50.250;8.312;2022-09-09T07:36:28;14.75;11.50;5.25
27143;PMS1003;14672;50.250;8.312;2022-09-09T07:39:00;12.50;12.00;6.00
27143;PMS1003;14672;50.250;8.312;2022-09-09T07:41:34;12.00;12.00;6.25
27143;PMS1003;14672;50.250;8.312;2022-09-09T07:44:06;12.50;12.50;6.00
27143;PMS1003;14672;50.250;8.312;2022-09-09T07:46:40;13.25;13.25;6.25
27143;PMS1003;14672;50.250;8.312;2022-09-09T07:49:06;13.00;12.00;6.00
27143;PMS1003;14672;50.250;8.312;2022-09-09T07:51:35;12.50;12.50;6.00
27143;PMS1003;14672;50.250;8.312;2022-09-09T07:54:10;12.00;12.00;5.75
27143;PMS1003;14672;50.250;8.312;2022-09-09T07:56:39;11.75;11.75;6.00
27143;PMS1003;14672;50.250;8.312;2022-09-09T07:59:06;13.33;13.00;6.00
27143;PMS1003;14672;50.250;8.312;2022-09-09T08:01:42;13.00;12.00;5.75
27143;PMS1003;14672;50.250;8.312;2022-09-09T08:04:15;13.75;12.50;5.50
27143;PMS1003;14672;50.250;8.312;2022-09-09T08:06:44;10.00;10.00;5.75
27143;PMS1003;14672;50.250;8.312;2022-09-09T08:09:17;12.25;12.00;5.00
27143;PMS1003;14672;50.250;8.312;2022-09-09T08:11:43;11.50;10.00;5.00
27143;PMS1003;14672;50.250;8.312;2022-09-09T08:14:09;16.00;14.25;5.75
27143;PMS1003;14672;50.250;8.312;2022-09-09T08:16:38;13.00;12.25;7.75
27143;PMS1003;14672;50.250;8.312;2022-09-09T08:19:07;9.75;8.75;4.75
27143;PMS1003;14672;50.250;8.312;2022-09-09T08:21:35;13.25;12.75;5.00
27143;PMS1003;14672;50.250;8.312;2022-09-09T08:24:04;10.25;10.25;4.75
27143;PMS1003;14672;50.250;8.312;2022-09-09T08:26:35;12.25;11.25;5.00
27143;PMS1003;14672;50.250;8.312;2022-09-09T08:29:10;14.00;12.75;6.00
27143;PMS1003;14672;50.250;8.312;2022-09-09T08:31:39;9.00;9.00;4.25
27143;PMS1003;14672;50.250;8.312;2022-09-09T08:34:19;9.25;9.25;4.75
27143;PMS1003;14672;50.250;8.312;2022-09-09T08:36:46;10.00;10.00;5.00
27143;PMS1003;14672;50.250;8.312;2022-09-09T08:39:15;12.00;11.00;5.00
27143;PMS1003;14672;50.250;8.312;2022-09-09T09:00:48;9.50;9.00;5.00
27143;PMS1003;14672;50.250;8.312;2022-09-09T09:09:06;9.75;9.25;4.25
27143;PMS1003;14672;50.250;8.312;2022-09-09T09:12:24;8.75;8.75;4.00
27143;PMS1003;14672;50.250;8.312;2022-09-09T09:14:54;9.25;9.00;3.50
27143;PMS1003;14672;50.250;8.312;2022-09-09T09:17:23;9.00;9.00;4.00
27143;PMS1003;14672;50.250;8.312;2022-09-09T09:19:53;11.25;11.00;4.25
27143;PMS1003;14672;50.250;8.312;2022-09-09T09:22:23;13.50;13.50;3.75
27143;PMS1003;14672;50.250;8.312;2022-09-09T09:27:58;9.25;9.25;3.75
27143;PMS1003;14672;50.250;8.312;2022-09-09T09:36:18;7.75;6.50;2.00
27143;PMS1003;14672;50.250;8.312;2022-09-09T09:38:52;9.25;9.25;5.00
27143;PMS1003;14672;50.250;8.312;2022-09-09T09:41:28;6.50;6.50;2.00
27143;PMS1003;14672;50.250;8.312;2022-09-09T09:43:57;9.50;9.50;4.50
27143;PMS1003;14672;50.250;8.312;2022-09-09T09:46:25;7.25;7.25;3.00
27143;PMS1003;14672;50.250;8.312;2022-09-09T09:49:01;8.00;8.00;3.00
27143;PMS1003;14672;50.250;8.312;2022-09-09T09:51:31;7.00;6.50;2.00
27143;PMS1003;14672;50.250;8.312;2022-09-09T09:56:52;9.25;9.00;4.00
27143;PMS1003;14672;50.250;8.312;2022-09-09T09:59:37;8.67;8.67;3.00
27143;PMS1003;14672;50.250;8.312;2022-09-09T10:04:59;8.25;7.00;2.25
27143;PMS1003;14672;50.250;8.312;2022-09-09T10:08:12;9.25;8.25;2.75
27143;PMS1003;14672;50.250;8.312;2022-09-09T10:17:26;6.25;6.25;2.00
27143;PMS1003;14672;50.250;8.312;2022-09-09T10:23:16;6.75;6.25;2.75
27143;PMS1003;14672;50.250;8.312;2022-09-09T10:43:22;6.00;6.00;2.00
27143;PMS1003;14672;50.250;8.312;2022-09-09T10:46:14;7.25;7.25;3.00
27143;PMS1003;14672;50.250;8.312;2022-09-09T10:56:16;6.25;6.25;2.00
27143;PMS1003;14672;50.250;8.312;2022-09-09T10:58:35;7.00;6.75;2.00
27143;PMS1003;14672;50.250;8.312;2022-09-09T11:01:12;6.50;6.50;2.00
27143;PMS1003;14672;50.250;8.312;2022-09-09T11:03:54;5.50;4.75;1.00
27143;PMS1003;14672;50.250;8.312;2022-09-09T11:06:35;6.75;6.75;1.75
27143;PMS1003;14672;50.250;8.312;2022-09-09T11:09:08;7.00;7.00;2.00
27143;PMS1003;14672;50.250;8.312;2022-09-09T11:11:55;6.00;6.00;1.75
27143;PMS1003;14672;50.250;8.312;2022-09-09T11:17:18;5.50;5.50;1.75
27143;PMS1003;14672;50.250;8.312;2022-09-09T11:19:52;6.75;6.75;1.25
27143;PMS1003;14672;50.250;8.312;2022-09-09T11:25:05;4.00;4.00;1.75
27143;PMS1003;14672;50.250;8.312;2022-09-09T11:37:17;6.00;6.00;2.00
27143;PMS1003;14672;50.250;8.312;2022-09-09T11:39:59;6.25;6.00;2.00
27143;PMS1003;14672;50.250;8.312;2022-09-09T11:42:33;6.00;6.00;3.00
27143;PMS1003;14672;50.250;8.312;2022-09-09T11:45:08;7.00;7.00;2.50
27143;PMS1003;14672;50.250;8.312;2022-09-09T11:47:57;6.25;6.25;2.00
27143;PMS1003;14672;50.250;8.312;2022-09-09T11:53:02;6.00;6.00;2.00
27143;PMS1003;14672;50.250;8.312;2022-09-09T11:55:30;6.00;6.00;2.75
27143;PMS1003;14672;50.250;8.312;2022-09-09T11:58:03;7.50;7.50;3.00
27143;PMS1003;14672;50.250;8.312;2022-09-09T12:00:41;7.00;7.00;2.00
27143;PMS1003;14672;50.250;8.312;2022-09-09T12:12:36;8.00;8.00;2.00
27143;PMS1003;14672;50.250;8.312;2022-09-09T12:17:36;6.25;6.25;2.00
27143;PMS1003;14672;50.250;8.312;2022-09-09T12:22:51;7.75;7.00;2.25
27143;PMS1003;14672;50.250;8.312;2022-09-09T12:31:34;6.00;6.00;2.00
27143;PMS1003;14672;50.250;8.312;2022-09-09T12:34:32;6.25;6.00;2.00
27143;PMS1003;14672;50.250;8.312;2022-09-09T12:40:21;6.75;6.75;2.00
27143;PMS1003;14672;50.250;8.312;2022-09-09T12:43:00;6.00;5.50;1.00
27143;PMS1003;14672;50.250;8.312;2022-09-09T12:45:31;7.50;6.00;1.75
27143;PMS1003;14672;50.250;8.312;2022-09-09T12:48:05;7.75;7.50;2.00
27143;PMS1003;14672;50.250;8.312;2022-09-09T12:50:37;6.00;4.00;1.00
27143;PMS1003;14672;50.250;8.312;2022-09-09T12:56:07;6.25;4.75;1.25
27143;PMS1003;14672;50.250;8.312;2022-09-09T12:58:45;4.00;4.00;1.00
27143;PMS1003;14672;50.250;8.312;2022-09-09T13:03:53;6.25;5.75;2.00
27143;PMS1003;14672;50.250;8.312;2022-09-09T13:06:21;5.75;4.25;2.00
27143;PMS1003;14672;50.250;8.312;2022-09-09T13:08:56;4.00;4.00;1.00
27143;PMS1003;14672;50.250;8.312;2022-09-09T13:11:26;6.25;6.25;2.00
27143;PMS1003;14672;50.250;8.312;2022-09-09T13:14:03;5.75;5.75;2.00
27143;PMS1003;14672;50.250;8.312;2022-09-09T13:16:33;6.25;5.75;1.50
27143;PMS1003;14672;50.250;8.312;2022-09-09T13:19:01;4.00;4.00;1.00
27143;PMS1003;14672;50.250;8.312;2022-09-09T13:21:41;6.25;6.25;2.50
27143;PMS1003;14672;50.250;8.312;2022-09-09T13:27:05;7.50;7.00;1.75
27143;PMS1003;14672;50.250;8.312;2022-09-09T13:30:00;3.25;3.25;1.25
27143;PMS1003;14672;50.250;8.312;2022-09-09T13:32:26;6.75;5.00;2.00
27143;PMS1003;14672;50.250;8.312;2022-09-09T13:34:53;4.00;4.00;1.00
27143;PMS1003;14672;50.250;8.312;2022-09-09T13:37:38;3.50;3.50;1.50
27143;PMS1003;14672;50.250;8.312;2022-09-09T13:40:06;4.50;4.00;1.00
27143;PMS1003;14672;50.250;8.312;2022-09-09T13:42:44;7.50;5.00;2.00
27143;PMS1003;14672;50.250;8.312;2022-09-09T13:45:20;6.50;4.00;1.50
27143;PMS1003;14672;50.250;8.312;2022-09-09T13:47:49;4.00;4.00;1.00
27143;PMS1003;14672;50.250;8.312;2022-09-09T13:50:18;3.00;3.00;1.00
27143;PMS1003;14672;50.250;8.312;2022-09-09T13:52:49;5.00;5.00;1.00
27143;PMS1003;14672;50.250;8.312;2022-09-09T13:55:21;5.00;4.25;1.00
27143;PMS1003;14672;50.250;8.312;2022-09-09T13:57:53;3.75;3.75;1.00
27143;PMS1003;14672;50.250;8.312;2022-09-09T14:00:23;6.50;4.25;1.00
27143;PMS1003;14672;50.250;8.312;2022-09-09T14:02:50;4.00;4.00;1.00
27143;PMS1003;14672;50.250;8.312;2022-09-09T14:05:17;3.75;3.75;1.00
27143;PMS1003;14672;50.250;8.312;2022-09-09T14:07:44;4.50;4.50;1.75
27143;PMS1003;14672;50.250;8.312;2022-09-09T14:10:11;4.75;4.75;2.00
27143;PMS1003;14672;50.250;8.312;2022-09-09T14:12:37;6.00;4.50;2.00
27143;PMS1003;14672;50.250;8.312;2022-09-09T14:15:04;6.67;5.00;2.00
27143;PMS1003;14672;50.250;8.312;2022-09-09T14:17:32;6.75;6.75;2.25
27143;PMS1003;14672;50.250;8.312;2022-09-09T14:19:58;4.00;4.00;1.50
27143;PMS1003;14672;50.250;8.312;2022-09-09T14:22:25;6.00;4.00;1.00
27143;PMS1003;14672;50.250;8.312;2022-09-09T14:24:51;6.33;6.33;1.00
27143;PMS1003;14672;50.250;8.312;2022-09-09T14:27:17;6.50;6.00;1.00
27143;PMS1003;14672;50.250;8.312;2022-09-09T14:29:44;6.00;6.00;1.75
27143;PMS1003;14672;50.250;8.312;2022-09-09T14:32:10;5.50;5.50;1.75
27143;PMS1003;14672;50.250;8.312;2022-09-09T14:34:37;5.75;5.75;1.25
27143;PMS1003;14672;50.250;8.312;2022-09-09T14:37:03;6.00;4.00;1.00
27143;PMS1003;14672;50.250;8.312;2022-09-09T14:39:29;7.25;6.25;2.25
27143;PMS1003;14672;50.250;8.312;2022-09-09T14:41:55;3.25;3.25;1.00
27143;PMS1003;14672;50.250;8.312;2022-09-09T14:44:21;7.33;6.00;1.00
27143;PMS1003;14672;50.250;8.312;2022-09-09T14:46:47;5.00;5.00;1.00
27143;PMS1003;14672;50.250;8.312;2022-09-09T14:49:15;5.25;5.25;1.00
27143;PMS1003;14672;50.250;8.312;2022-09-09T14:51:41;5.50;5.50;0.50
27143;PMS1003;14672;50.250;8.312;2022-09-09T14:54:07;7.00;6.33;1.33
27143;PMS1003;14672;50.250;8.312;2022-09-09T14:56:33;5.25;4.75;1.00
27143;PMS1003;14672;50.250;8.312;2022-09-09T14:58:59;6.75;6.75;1.00
27143;PMS1003;14672;50.250;8.312;2022-09-09T15:01:26;4.75;4.75;1.50
27143;PMS1003;14672;50.250;8.312;2022-09-09T15:03:57;5.00;5.00;1.25
27143;PMS1003;14672;50.250;8.312;2022-09-09T15:06:29;4.50;4.50;1.00
27143;PMS1003;14672;50.250;8.312;2022-09-09T15:09:03;3.00;3.00;1.00
27143;PMS1003;14672;50.250;8.312;2022-09-09T15:11:30;7.00;6.00;1.67
27143;PMS1003;14672;50.250;8.312;2022-09-09T15:14:03;5.25;5.25;1.00
27143;PMS1003;14672;50.250;8.312;2022-09-09T15:16:30;6.50;5.00;1.00
27143;PMS1003;14672;50.250;8.312;2022-09-09T15:18:57;6.00;6.00;2.00
27143;PMS1003;14672;50.250;8.312;2022-09-09T15:21:27;6.50;6.00;1.00
27143;PMS1003;14672;50.250;8.312;2022-09-09T15:23:58;8.00;7.00;2.00
27143;PMS1003;14672;50.250;8.312;2022-09-09T15:26:25;7.00;7.00;2.00
27143;PMS1003;14672;50.250;8.312;2022-09-09T15:28:52;6.00;6.00;1.00
27143;PMS1003;14672;50.250;8.312;2022-09-09T15:31:19;8.33;7.67;2.00
27143;PMS1003;14672;50.250;8.312;2022-09-09T15:33:51;5.50;5.50;1.25
27143;PMS1003;14672;50.250;8.312;2022-09-09T15:36:47;6.00;6.00;3.00
27143;PMS1003;14672;50.250;8.312;2022-09-09T15:39:13;6.50;6.25;2.00
27143;PMS1003;14672;50.250;8.312;2022-09-09T15:41:45;3.25;3.25;1.00
27143;PMS1003;14672;50.250;8.312;2022-09-09T15:44:13;6.00;6.00;2.50
27143;PMS1003;14672;50.250;8.312;2022-09-09T15:49:14;7.00;6.00;2.00
27143;PMS1003;14672;50.250;8.312;2022-09-09T15:51:45;4.50;4.50;1.00
27143;PMS1003;14672;50.250;8.312;2022-09-09T15:54:16;6.00;6.00;2.00
27143;PMS1003;14672;50.250;8.312;2022-09-09T15:56:50;5.25;5.00;1.00
27143;PMS1003;14672;50.250;8.312;2022-09-09T15:59:22;6.25;5.75;2.00
27143;PMS1003;14672;50.250;8.312;2022-09-09T16:01:49;7.25;6.75;2.00
27143;PMS1003;14672;50.250;8.312;2022-09-09T16:04:17;7.00;7.00;2.50
27143;PMS1003;14672;50.250;8.312;2022-09-09T16:06:50;5.25;5.00;1.00
27143;PMS1003;14672;50.250;8.312;2022-09-09T16:09:34;6.75;6.00;2.00
27143;PMS1003;14672;50.250;8.312;2022-09-09T16:12:02;6.00;6.00;2.00
27143;PMS1003;14672;50.250;8.312;2022-09-09T16:14:34;5.25;5.00;1.00
27143;PMS1003;14672;50.250;8.312;2022-09-09T16:17:01;6.25;6.25;1.75
27143;PMS1003;14672;50.250;8.312;2022-09-09T16:19:28;6.00;6.00;2.00
27143;PMS1003;14672;50.250;8.312;2022-09-09T16:21:54;6.00;6.00;2.00
27143;PMS1003;14672;50.250;8.312;2022-09-09T16:24:20;8.00;8.00;3.00
27143;PMS1003;14672;50.250;8.312;2022-09-09T16:26:47;5.33;5.33;2.00
27143;PMS1003;14672;50.250;8.312;2022-09-09T16:29:16;6.00;6.00;3.00
27143;PMS1003;14672;50.250;8.312;2022-09-09T16:31:46;6.25;6.00;1.75
27143;PMS1003;14672;50.250;8.312;2022-09-09T16:34:13;6.75;6.25;3.00
27143;PMS1003;14672;50.250;8.312;2022-09-09T16:36:42;6.00;6.00;2.00
27143;PMS1003;14672;50.250;8.312;2022-09-09T16:39:10;6.00;6.00;2.25
27143;PMS1003;14672;50.250;8.312;2022-09-09T16:41:39;7.00;7.00;2.00
27143;PMS1003;14672;50.250;8.312;2022-09-09T16:44:07;7.25;7.25;2.50
27143;PMS1003;14672;50.250;8.312;2022-09-09T16:46:36;4.50;4.50;1.25
27143;PMS1003;14672;50.250;8.312;2022-09-09T16:49:06;6.00;6.00;2.00
27143;PMS1003;14672;50.250;8.312;2022-09-09T16:51:38;8.75;6.00;1.00
27143;PMS1003;14672;50.250;8.312;2022-09-09T16:54:10;8.25;7.00;2.00
27143;PMS1003;14672;50.250;8.312;2022-09-09T16:56:39;4.50;4.50;1.00
27143;PMS1003;14672;50.250;8.312;2022-09-09T16:59:08;7.50;7.00;3.00
27143;PMS1003;14672;50.250;8.312;2022-09-09T17:01:45;6.25;6.25;2.00
27143;PMS1003;14672;50.250;8.312;2022-09-09T17:04:25;6.75;6.75;3.00
27143;PMS1003;14672;50.250;8.312;2022-09-09T17:06:53;6.00;6.00;2.00
27143;PMS1003;14672;50.250;8.312;2022-09-09T17:09:20;6.25;5.75;2.00
27143;PMS1003;14672;50.250;8.312;2022-09-09T17:11:48;5.00;5.00;1.00
27143;PMS1003;14672;50.250;8.312;2022-09-09T17:14:17;7.25;6.50;2.75
27143;PMS1003;14672;50.250;8.312;2022-09-09T17:16:44;7.75;6.00;2.00
27143;PMS1003;14672;50.250;8.312;2022-09-09T17:19:10;6.67;6.67;2.00
27143;PMS1003;14672;50.250;8.312;2022-09-09T17:21:37;5.00;5.00;2.00
27143;PMS1003;14672;50.250;8.312;2022-09-09T17:24:03;5.75;5.75;1.00
27143;PMS1003;14672;50.250;8.312;2022-09-09T17:26:30;7.33;6.00;2.00
27143;PMS1003;14672;50.250;8.312;2022-09-09T17:28:59;10.00;9.25;2.00
27143;PMS1003;14672;50.250;8.312;2022-09-09T17:31:27;5.25;5.25;1.25
27143;PMS1003;14672;50.250;8.312;2022-09-09T17:33:55;5.00;5.00;2.00
27143;PMS1003;14672;50.250;8.312;2022-09-09T17:36:22;7.25;6.75;2.00
27143;PMS1003;14672;50.250;8.312;2022-09-09T17:38:55;5.50;5.00;1.25
27143;PMS1003;14672;50.250;8.312;2022-09-09T17:41:23;6.25;6.00;1.00
27143;PMS1003;14672;50.250;8.312;2022-09-09T17:43:54;7.75;7.75;2.50
27143;PMS1003;14672;50.250;8.312;2022-09-09T17:46:23;5.00;5.00;1.00
27143;PMS1003;14672;50.250;8.312;2022-09-09T17:49:04;5.00;5.00;1.75
27143;PMS1003;14672;50.250;8.312;2022-09-09T17:51:34;5.50;5.50;1.00
27143;PMS1003;14672;50.250;8.312;2022-09-09T17:54:02;6.50;6.50;2.00
27143;PMS1003;14672;50.250;8.312;2022-09-09T17:56:34;6.00;5.00;1.00